createdAt,value
2022-12-14T00:01:40.979Z,19.90
2022-12-14T00:04:07.879Z,18.93
2022-12-14T00:06:35.001Z,18.43
2022-12-14T00:09:04.258Z,20.57
2022-12-14T00:11:33.428Z,20.70
2022-12-14T00:14:03.380Z,18.03
2022-12-14T00:16:33.616Z,25.93
2022-12-14T00:19:01.939Z,31.83
2022-12-14T00:21:29.509Z,22.70
2022-12-14T00:24:00.337Z,24.40
2022-12-14T00:26:31.184Z,19.90
2022-12-14T00:29:00.668Z,19.27
2022-12-14T00:31:28.203Z,19.80
2022-12-14T00:33:55.416Z,20.23
2022-12-14T00:36:22.599Z,24.27
2022-12-14T00:38:49.475Z,20.23
2022-12-14T00:41:16.360Z,20.00
2022-12-14T00:43:43.417Z,21.63
2022-12-14T00:46:10.397Z,18.90
2022-12-14T00:48:37.459Z,17.73
2022-12-14T00:51:04.397Z,20.13
2022-12-14T00:53:31.772Z,23.33
2022-12-14T00:56:06.591Z,21.30
2022-12-14T00:58:34.052Z,22.43
2022-12-14T01:01:14.763Z,17.67
2022-12-14T01:03:41.963Z,21.73
2022-12-14T01:06:22.259Z,19.47
2022-12-14T01:08:49.652Z,25.53
2022-12-14T01:11:16.563Z,21.70
2022-12-14T01:13:43.465Z,23.63
2022-12-14T01:16:14.793Z,18.57
2022-12-14T01:18:43.616Z,17.10
2022-12-14T01:21:12.095Z,15.50
2022-12-14T01:23:39.636Z,21.83
2022-12-14T01:26:06.778Z,19.77
2022-12-14T01:28:34.995Z,21.40
2022-12-14T01:31:21.316Z,19.03
2022-12-14T01:33:49.084Z,18.77
2022-12-14T01:36:22.742Z,19.03
2022-12-14T01:38:55.219Z,19.77
2022-12-14T01:41:27.768Z,17.60
2022-12-14T01:44:24.275Z,18.70
2022-12-14T01:47:11.976Z,19.90
2022-12-14T01:49:43.257Z,15.60
2022-12-14T01:52:21.493Z,29.00
2022-12-14T01:54:59.620Z,23.67
2022-12-14T01:57:34.190Z,21.33
2022-12-14T02:00:06.904Z,17.33
2022-12-14T02:02:37.508Z,19.20
2022-12-14T02:05:08.174Z,19.07
2022-12-14T02:07:35.096Z,21.87
2022-12-14T02:10:05.874Z,19.50
2022-12-14T02:12:41.261Z,18.10
2022-12-14T02:15:08.800Z,17.23
2022-12-14T02:17:35.718Z,16.27
2022-12-14T02:20:04.356Z,14.80
2022-12-14T02:23:02.224Z,31.25
2022-12-14T02:26:15.752Z,18.00
2022-12-14T02:29:15.280Z,16.87
2022-12-14T02:32:26.387Z,20.08
2022-12-14T02:35:19.746Z,19.13
2022-12-14T02:38:28.172Z,20.80
2022-12-14T02:41:17.874Z,13.93
2022-12-14T02:44:18.000Z,19.10
2022-12-14T02:46:58.469Z,16.05
2022-12-14T02:49:51.659Z,16.70
2022-12-14T02:52:53.526Z,15.80
2022-12-14T02:55:43.102Z,18.33
2022-12-14T02:58:22.190Z,19.10
2022-12-14T03:00:49.857Z,12.33
2022-12-14T03:03:17.326Z,19.48
2022-12-14T03:05:58.846Z,20.77
2022-12-14T03:08:28.285Z,21.43
2022-12-14T03:11:05.408Z,19.77
2022-12-14T03:13:49.150Z,19.13
2022-12-14T03:16:28.616Z,17.97
2022-12-14T03:19:00.692Z,13.73
2022-12-14T03:21:36.479Z,18.37
2022-12-14T03:24:10.266Z,19.37
2022-12-14T03:26:56.518Z,17.60
2022-12-14T03:29:32.811Z,19.58
2022-12-14T03:32:06.543Z,17.80
2022-12-14T03:34:43.380Z,18.30
2022-12-14T03:37:16.534Z,17.37
2022-12-14T03:39:45.483Z,18.60
2022-12-14T03:42:23.697Z,17.33
2022-12-14T03:45:11.916Z,17.65
2022-12-14T03:48:15.512Z,20.65
2022-12-14T03:51:19.626Z,27.00
2022-12-14T03:54:15.852Z,24.33
2022-12-14T03:57:07.888Z,20.67
2022-12-14T04:00:07.463Z,19.63
2022-12-14T04:02:51.564Z,22.08
2022-12-14T04:05:48.764Z,19.93
2022-12-14T04:08:26.974Z,26.52
2022-12-14T04:11:15.794Z,21.20
2022-12-14T04:14:08.615Z,17.83
2022-12-14T04:16:58.688Z,18.23
2022-12-14T04:19:37.775Z,20.10
2022-12-14T04:22:14.122Z,23.93
2022-12-14T04:25:12.989Z,21.10
2022-12-14T04:27:50.299Z,24.60
2022-12-14T04:30:17.639Z,20.38
2022-12-14T04:32:50.382Z,17.83
2022-12-14T04:35:35.153Z,20.93
2022-12-14T04:38:13.838Z,17.27
2022-12-14T04:40:49.425Z,18.13
2022-12-14T04:43:21.299Z,19.70
2022-12-14T04:46:00.199Z,20.07
2022-12-14T04:49:08.784Z,23.30
2022-12-14T04:51:59.386Z,19.50
2022-12-14T04:55:05.921Z,22.63
2022-12-14T04:57:56.619Z,25.77
2022-12-14T05:00:24.275Z,21.95
2022-12-14T05:03:26.360Z,23.15
2022-12-14T05:06:08.034Z,22.90
2022-12-14T05:09:12.184Z,24.42
2022-12-14T05:12:11.083Z,22.13
2022-12-14T05:14:46.824Z,22.38
2022-12-14T05:17:14.993Z,25.55
2022-12-14T05:19:49.918Z,22.48
2022-12-14T05:22:18.052Z,20.63
2022-12-14T05:24:44.922Z,22.38
2022-12-14T05:27:11.826Z,19.15
2022-12-14T05:29:38.709Z,20.73
2022-12-14T05:32:05.755Z,21.00
2022-12-14T05:34:32.670Z,24.00
2022-12-14T05:36:59.567Z,21.77
2022-12-14T05:39:26.474Z,28.00
2022-12-14T05:41:53.460Z,19.65
2022-12-14T05:44:20.934Z,18.58
2022-12-14T05:46:47.916Z,22.23
2022-12-14T05:49:14.813Z,25.88
2022-12-14T05:51:41.713Z,28.75
2022-12-14T05:54:08.772Z,25.85
2022-12-14T05:56:35.667Z,28.00
2022-12-14T05:59:02.670Z,21.10
2022-12-14T06:01:29.643Z,23.55
2022-12-14T06:03:56.653Z,21.17
2022-12-14T06:06:23.657Z,24.70
2022-12-14T06:08:50.570Z,21.60
2022-12-14T06:11:20.773Z,22.48
2022-12-14T06:13:48.379Z,23.63
2022-12-14T06:16:22.957Z,25.30
2022-12-14T06:18:53.394Z,26.27
2022-12-14T06:21:25.515Z,25.77
2022-12-14T06:23:52.550Z,24.25
2022-12-14T06:26:19.598Z,22.55
2022-12-14T06:28:46.756Z,23.50
2022-12-14T06:31:23.470Z,29.25
2022-12-14T06:33:51.421Z,25.75
2022-12-14T06:36:27.391Z,28.55
2022-12-14T06:38:56.020Z,21.13
2022-12-14T06:41:24.406Z,26.38
2022-12-14T06:43:51.987Z,20.42
2022-12-14T06:46:22.120Z,26.95
2022-12-14T06:48:52.063Z,22.00
2022-12-14T06:51:20.002Z,23.35
2022-12-14T06:53:50.251Z,26.98
2022-12-14T06:56:18.923Z,23.05
2022-12-14T06:58:46.328Z,20.95
2022-12-14T07:01:21.967Z,28.67
2022-12-14T07:03:55.046Z,27.33
2022-12-14T07:06:23.234Z,27.60
2022-12-14T07:08:54.230Z,25.80
2022-12-14T07:11:22.051Z,30.23
2022-12-14T07:13:49.098Z,25.17
2022-12-14T07:16:20.433Z,26.88
2022-12-14T07:18:48.151Z,26.65
2022-12-14T07:21:17.364Z,25.52
2022-12-14T07:23:46.228Z,25.80
2022-12-14T07:26:18.103Z,27.25
2022-12-14T07:28:46.289Z,29.30
2022-12-14T07:31:24.739Z,31.90
2022-12-14T07:33:57.955Z,28.02
2022-12-14T07:36:27.620Z,28.50
2022-12-14T07:38:55.780Z,31.15
2022-12-14T07:41:30.611Z,23.67
2022-12-14T07:44:00.223Z,22.83
2022-12-14T07:46:30.242Z,26.35
2022-12-14T07:48:58.884Z,34.65
2022-12-14T07:51:32.433Z,28.70
2022-12-14T07:54:01.274Z,29.40
2022-12-14T07:56:32.264Z,22.35
2022-12-14T07:59:01.022Z,26.40
2022-12-14T08:01:33.943Z,24.23
2022-12-14T08:04:30.397Z,24.38
2022-12-14T08:06:58.713Z,26.95
2022-12-14T08:09:25.597Z,23.95
2022-12-14T08:11:52.484Z,27.00
2022-12-14T08:14:19.765Z,21.58
2022-12-14T08:16:48.648Z,29.25
2022-12-14T08:19:16.658Z,21.42
2022-12-14T08:21:43.588Z,26.35
2022-12-14T08:24:13.208Z,26.90
2022-12-14T08:26:40.107Z,30.15
2022-12-14T08:29:07.289Z,23.65
2022-12-14T08:31:34.408Z,25.73
2022-12-14T08:34:02.499Z,32.95
2022-12-14T08:36:34.344Z,29.77
2022-12-14T08:39:10.235Z,30.35
2022-12-14T08:41:37.145Z,32.75
2022-12-14T08:44:05.514Z,34.65
2022-12-14T08:46:35.194Z,28.17
2022-12-14T08:49:02.249Z,29.77
2022-12-14T08:51:29.604Z,22.83
2022-12-14T08:53:57.514Z,24.77
2022-12-14T08:56:28.129Z,29.48
2022-12-14T08:58:56.475Z,23.48
2022-12-14T09:01:32.708Z,31.08
2022-12-14T09:04:07.665Z,21.95
2022-12-14T09:06:38.294Z,27.33
2022-12-14T09:09:13.290Z,24.07
2022-12-14T09:11:42.352Z,27.10
2022-12-14T09:14:09.236Z,27.85
2022-12-14T09:16:37.576Z,24.43
2022-12-14T09:19:04.638Z,30.07
2022-12-14T09:21:31.726Z,27.57
2022-12-14T09:23:59.936Z,25.83
2022-12-14T09:26:27.601Z,31.90
2022-12-14T09:28:56.623Z,26.77
2022-12-14T09:31:26.840Z,29.60
2022-12-14T09:33:54.935Z,22.27
2022-12-14T09:36:27.467Z,23.33
2022-12-14T09:38:55.383Z,29.63
2022-12-14T09:41:34.401Z,23.53
2022-12-14T09:44:38.545Z,20.97
2022-12-14T09:47:20.048Z,24.93
2022-12-14T09:49:49.901Z,20.57
2022-12-14T09:52:45.471Z,25.87
2022-12-14T09:55:31.265Z,23.40
2022-12-14T09:58:16.500Z,26.43
2022-12-14T10:01:15.163Z,29.87
2022-12-14T10:04:16.328Z,25.97
2022-12-14T10:07:19.984Z,22.67
2022-12-14T10:10:16.137Z,23.67
2022-12-14T10:13:04.316Z,35.90
2022-12-14T10:15:54.949Z,21.77
2022-12-14T10:19:02.155Z,25.73
2022-12-14T10:21:52.735Z,26.10
2022-12-14T10:24:30.443Z,23.57
2022-12-14T10:26:57.579Z,25.93
2022-12-14T10:29:42.613Z,23.57
2022-12-14T10:32:38.601Z,21.60
2022-12-14T10:35:14.961Z,34.50
2022-12-14T10:37:47.803Z,24.03
2022-12-14T10:40:49.460Z,27.90
2022-12-14T10:43:45.943Z,23.47
2022-12-14T10:46:42.454Z,24.90
2022-12-14T10:49:40.005Z,20.87
2022-12-14T10:52:34.046Z,20.70
2022-12-14T10:55:07.068Z,23.00
2022-12-14T10:57:33.959Z,21.70
2022-12-14T11:00:09.195Z,25.47
2022-12-14T11:02:42.989Z,29.03
2022-12-14T11:05:25.022Z,27.13
2022-12-14T11:07:51.906Z,23.10
2022-12-14T11:10:24.730Z,26.37
2022-12-14T11:13:18.021Z,28.17
2022-12-14T11:15:48.522Z,28.93
2022-12-14T11:18:15.412Z,28.53
2022-12-14T11:21:01.881Z,27.67
2022-12-14T11:23:35.882Z,26.63
2022-12-14T11:26:07.072Z,32.47
2022-12-14T11:28:40.135Z,26.97
2022-12-14T11:31:12.422Z,25.10
2022-12-14T11:33:50.591Z,29.30
2022-12-14T11:36:36.080Z,25.50
2022-12-14T11:39:15.096Z,27.90
2022-12-14T11:41:48.951Z,26.10
2022-12-14T11:44:15.748Z,26.50
2022-12-14T11:47:02.106Z,28.53
2022-12-14T11:49:45.111Z,26.23
2022-12-14T11:52:22.215Z,24.03
2022-12-14T11:54:55.215Z,27.70
2022-12-14T11:57:28.492Z,23.37
2022-12-14T12:00:02.126Z,24.50
2022-12-14T12:02:40.018Z,24.73
2022-12-14T12:05:20.030Z,24.80
2022-12-14T12:07:49.843Z,24.40
2022-12-14T12:10:22.993Z,26.87
2022-12-14T12:13:00.362Z,28.63
2022-12-14T12:15:37.402Z,24.30
2022-12-14T12:18:46.292Z,24.83
2022-12-14T12:21:30.191Z,24.53
2022-12-14T12:24:21.816Z,27.73
2022-12-14T12:26:58.660Z,23.70
2022-12-14T12:29:48.458Z,25.73
2022-12-14T12:32:28.585Z,22.90
2022-12-14T12:35:13.407Z,31.37
2022-12-14T12:37:57.613Z,24.50
2022-12-14T12:40:54.940Z,20.40
2022-12-14T12:43:39.092Z,21.73
2022-12-14T12:46:16.704Z,21.73
2022-12-14T12:48:53.445Z,21.67
2022-12-14T12:51:28.799Z,18.00
2022-12-14T12:54:15.830Z,21.90
2022-12-14T12:56:48.457Z,25.27
2022-12-14T12:59:35.540Z,31.83
2022-12-14T13:02:30.023Z,34.70
2022-12-14T13:05:06.998Z,22.67
2022-12-14T13:07:53.980Z,22.23
2022-12-14T13:10:30.860Z,25.43
2022-12-14T13:13:07.144Z,23.03
2022-12-14T13:15:52.608Z,21.07
2022-12-14T13:18:57.377Z,21.93
2022-12-14T13:21:30.826Z,21.93
2022-12-14T13:23:58.128Z,24.30
2022-12-14T13:27:29.976Z,23.10
2022-12-14T13:30:45.036Z,26.07
2022-12-14T13:33:39.687Z,25.77
2022-12-14T13:36:49.810Z,20.30
2022-12-14T13:39:57.234Z,20.83
2022-12-14T13:43:13.091Z,20.50
2022-12-14T13:45:43.925Z,22.70
2022-12-14T13:48:28.105Z,23.20
2022-12-14T13:51:02.028Z,21.50
2022-12-14T13:53:41.330Z,22.93
2022-12-14T13:56:09.085Z,28.20
2022-12-14T13:58:44.619Z,33.63
2022-12-14T14:01:48.399Z,21.57
2022-12-14T14:04:29.687Z,31.60
2022-12-14T14:07:26.693Z,20.90
2022-12-14T14:09:59.524Z,24.40
2022-12-14T14:12:37.043Z,22.47
2022-12-14T14:15:33.014Z,22.20
2022-12-14T14:18:14.943Z,24.67
2022-12-14T14:20:58.625Z,24.47
2022-12-14T14:23:31.853Z,25.43
2022-12-14T14:26:22.661Z,24.50
2022-12-14T14:29:23.470Z,25.93
2022-12-14T14:31:56.390Z,20.67
2022-12-14T14:34:43.785Z,23.87
2022-12-14T14:37:19.782Z,22.63
2022-12-14T14:40:16.733Z,22.70
2022-12-14T14:43:18.058Z,22.80
2022-12-14T14:45:52.710Z,27.87
2022-12-14T14:48:38.865Z,26.17
2022-12-14T14:51:34.531Z,26.40
2022-12-14T14:54:37.601Z,30.23
2022-12-14T14:57:03.223Z,24.23
2022-12-14T14:59:51.128Z,36.80
2022-12-14T15:02:40.423Z,31.30
2022-12-14T15:08:04.305Z,28.63
2022-12-14T15:10:44.606Z,28.00
2022-12-14T15:13:26.198Z,22.70
2022-12-14T15:15:56.303Z,26.03
2022-12-14T15:18:26.711Z,26.83
2022-12-14T15:21:06.800Z,30.47
2022-12-14T15:23:37.682Z,31.03
2022-12-14T15:26:16.901Z,30.20
2022-12-14T15:28:55.059Z,33.67
2022-12-14T15:31:41.921Z,30.30
2022-12-14T15:34:18.173Z,25.97
2022-12-14T15:36:45.588Z,33.80
2022-12-14T15:39:43.502Z,32.60
2022-12-14T15:42:15.442Z,29.13
2022-12-14T15:44:54.894Z,24.87
2022-12-14T15:47:30.481Z,26.57
2022-12-14T15:50:22.495Z,26.87
2022-12-14T15:52:51.201Z,29.27
2022-12-14T15:55:35.609Z,29.93
2022-12-14T15:58:20.731Z,23.77
2022-12-14T16:00:51.716Z,33.00
2022-12-14T16:03:32.705Z,30.63
2022-12-14T16:06:00.967Z,32.03
2022-12-14T16:08:30.904Z,34.10
2022-12-14T16:11:01.548Z,34.47
2022-12-14T16:13:35.044Z,46.87
2022-12-14T16:16:11.686Z,29.13
2022-12-14T16:18:50.738Z,31.53
2022-12-14T16:21:34.388Z,41.00
2022-12-14T16:24:22.370Z,37.63
2022-12-14T16:27:00.218Z,36.17
2022-12-14T16:29:32.775Z,68.13
2022-12-14T16:32:12.939Z,51.07
2022-12-14T16:34:47.542Z,49.60
2022-12-14T16:37:33.931Z,45.43
2022-12-14T16:40:01.246Z,45.10
2022-12-14T16:42:31.577Z,49.45
2022-12-14T16:44:58.453Z,47.17
2022-12-14T16:47:34.393Z,46.63
2022-12-14T16:50:01.268Z,37.00
2022-12-14T16:52:36.735Z,35.08
2022-12-14T16:55:19.355Z,32.63
2022-12-14T16:57:49.163Z,29.80
2022-12-14T17:00:27.721Z,31.65
2022-12-14T17:03:20.717Z,29.20
2022-12-14T17:05:54.123Z,37.33
2022-12-14T17:08:21.082Z,38.15
2022-12-14T17:10:48.238Z,51.42
2022-12-14T17:13:15.161Z,39.83
2022-12-14T17:16:03.838Z,41.13
2022-12-14T17:18:35.397Z,41.78
2022-12-14T17:21:02.559Z,49.67
2022-12-14T17:23:29.890Z,45.03
2022-12-14T17:25:57.487Z,42.60
2022-12-14T17:28:31.058Z,50.47
2022-12-14T17:31:01.580Z,43.88
2022-12-14T17:33:30.497Z,47.47
2022-12-14T17:35:57.768Z,44.70
2022-12-14T17:38:25.807Z,37.40
2022-12-14T17:40:53.907Z,44.63
2022-12-14T17:43:26.727Z,40.95
2022-12-14T17:45:54.554Z,32.13
2022-12-14T17:48:21.512Z,33.50
2022-12-14T17:50:50.004Z,39.60
2022-12-14T17:53:25.160Z,42.88
2022-12-14T17:55:52.078Z,36.40
2022-12-14T17:58:19.028Z,28.83
2022-12-14T18:01:00.910Z,26.15
2022-12-14T18:03:36.505Z,25.73
2022-12-14T18:06:04.653Z,26.40
2022-12-14T18:08:31.571Z,27.40
2022-12-14T18:11:02.600Z,25.80
2022-12-14T18:13:31.695Z,24.80
2022-12-14T18:16:00.517Z,28.60
2022-12-14T18:18:29.427Z,28.10
2022-12-14T18:21:02.775Z,27.85
2022-12-14T18:23:31.700Z,32.08
2022-12-14T18:26:00.031Z,29.33
2022-12-14T18:28:27.344Z,29.70
2022-12-14T18:31:03.747Z,25.50
2022-12-14T18:33:33.246Z,28.70
2022-12-14T18:36:00.862Z,32.40
2022-12-14T18:38:27.840Z,31.88
2022-12-14T18:40:58.473Z,35.65
2022-12-14T18:43:28.091Z,34.17
2022-12-14T18:45:56.345Z,30.42
2022-12-14T18:48:25.098Z,31.55
2022-12-14T18:50:54.077Z,40.92
2022-12-14T18:53:23.486Z,31.27
2022-12-14T18:55:50.521Z,30.10
2022-12-14T18:58:27.525Z,28.35
2022-12-14T19:00:57.839Z,23.60
2022-12-14T19:03:26.345Z,30.23
2022-12-14T19:06:34.392Z,23.17
2022-12-14T19:08:51.224Z,25.10
2022-12-14T19:11:34.315Z,24.35
2022-12-14T19:14:02.074Z,23.45
2022-12-14T19:16:29.516Z,27.05
2022-12-14T19:18:56.853Z,22.02
2022-12-14T19:21:25.727Z,27.38
2022-12-14T19:23:52.675Z,30.88
2022-12-14T19:26:19.557Z,26.42
2022-12-14T19:28:46.443Z,22.85
2022-12-14T19:31:13.425Z,21.35
2022-12-14T19:33:40.372Z,27.48
2022-12-14T19:36:08.623Z,28.20
2022-12-14T19:38:36.897Z,31.77
2022-12-14T19:41:11.101Z,29.02
2022-12-14T19:43:39.372Z,24.27
2022-12-14T19:46:08.145Z,26.60
2022-12-14T19:48:35.390Z,22.77
2022-12-14T19:51:07.880Z,22.08
2022-12-14T19:53:35.751Z,22.33
2022-12-14T19:56:03.741Z,22.00
2022-12-14T19:58:30.686Z,31.15
2022-12-14T20:00:57.947Z,25.88
2022-12-14T20:03:25.330Z,29.38
2022-12-14T20:05:54.888Z,24.40
2022-12-14T20:08:22.895Z,26.52
2022-12-14T20:10:50.337Z,27.02
2022-12-14T20:13:17.251Z,26.17
2022-12-14T20:15:53.697Z,30.48
2022-12-14T20:18:23.080Z,24.05
2022-12-14T20:20:52.130Z,30.67
2022-12-14T20:23:21.544Z,35.97
2022-12-14T20:25:49.482Z,33.97
2022-12-14T20:28:16.426Z,31.45
2022-12-14T20:30:47.741Z,28.02
2022-12-14T20:33:14.697Z,26.67
2022-12-14T20:35:41.621Z,28.45
2022-12-14T20:38:08.485Z,22.85
2022-12-14T20:40:38.859Z,26.52
2022-12-14T20:43:07.104Z,30.40
2022-12-14T20:45:42.338Z,24.45
2022-12-14T20:48:09.335Z,21.27
2022-12-14T20:50:42.215Z,28.92
2022-12-14T20:53:09.274Z,24.30
2022-12-14T20:55:36.422Z,25.10
2022-12-14T20:58:03.367Z,23.48
2022-12-14T21:00:30.383Z,27.40
2022-12-14T21:02:57.504Z,24.13
2022-12-14T21:05:24.822Z,20.90
2022-12-14T21:07:52.018Z,27.27
2022-12-14T21:10:19.026Z,20.90
2022-12-14T21:12:48.736Z,24.90
2022-12-14T21:15:15.697Z,33.97
2022-12-14T21:17:42.584Z,31.58
2022-12-14T21:20:11.413Z,28.48
2022-12-14T21:22:38.601Z,32.70
2022-12-14T21:25:07.167Z,29.45
2022-12-14T21:27:40.706Z,25.45
2022-12-14T21:30:11.210Z,20.92
2022-12-14T21:32:39.019Z,28.30
2022-12-14T21:35:06.688Z,30.65
2022-12-14T21:37:33.602Z,30.17
2022-12-14T21:40:03.267Z,28.55
2022-12-14T21:42:30.128Z,30.92
2022-12-14T21:44:57.646Z,30.17
2022-12-14T21:47:29.868Z,32.38
2022-12-14T21:49:57.279Z,35.47
2022-12-14T21:52:26.728Z,36.30
2022-12-14T21:54:53.616Z,31.98
2022-12-14T21:57:42.605Z,32.50
2022-12-14T22:00:11.104Z,27.08
2022-12-14T22:02:41.849Z,37.88
2022-12-14T22:05:10.236Z,28.55
2022-12-14T22:07:37.127Z,29.23
2022-12-14T22:10:04.734Z,25.48
2022-12-14T22:12:31.827Z,25.27
2022-12-14T22:14:58.702Z,29.75
2022-12-14T22:17:25.586Z,24.90
2022-12-14T22:19:54.289Z,29.80
2022-12-14T22:22:21.245Z,21.55
2022-12-14T22:24:49.700Z,24.88
2022-12-14T22:27:16.863Z,24.35
2022-12-14T22:29:43.731Z,21.73
2022-12-14T22:32:14.682Z,26.30
2022-12-14T22:34:41.961Z,26.85
2022-12-14T22:37:09.029Z,25.88
2022-12-14T22:39:36.099Z,26.30
2022-12-14T22:42:03.010Z,27.25
2022-12-14T22:44:29.975Z,25.70
2022-12-14T22:46:57.713Z,26.70
2022-12-14T22:49:24.662Z,21.33
2022-12-14T22:51:51.638Z,21.70
2022-12-14T22:54:24.688Z,24.38
2022-12-14T22:57:04.730Z,24.58
2022-12-14T22:59:58.548Z,20.17
2022-12-14T23:02:25.975Z,22.73
2022-12-14T23:04:53.105Z,23.30
2022-12-14T23:07:20.023Z,26.63
2022-12-14T23:10:05.287Z,22.27
2022-12-14T23:12:50.820Z,21.30
2022-12-14T23:15:36.261Z,25.33
2022-12-14T23:18:26.550Z,23.10
2022-12-14T23:21:13.054Z,18.58
2022-12-14T23:24:01.419Z,19.48
2022-12-14T23:26:47.501Z,23.98
2022-12-14T23:29:33.446Z,20.17
2022-12-14T23:32:18.726Z,20.20
2022-12-14T23:35:04.312Z,19.15
2022-12-14T23:37:49.781Z,18.40
2022-12-14T23:40:35.504Z,17.20
2022-12-14T23:43:33.796Z,18.33
2022-12-14T23:46:20.818Z,23.80
2022-12-14T23:49:10.534Z,20.77
2022-12-14T23:52:00.980Z,21.58
2022-12-14T23:54:46.138Z,24.33
2022-12-14T23:57:31.772Z,22.08
